createdAt,value
2022-09-10T00:00:09.118Z,16.90
2022-09-10T00:04:19.755Z,16.80
2022-09-10T00:08:28.787Z,16.80
2022-09-10T00:12:38.038Z,16.80
2022-09-10T00:16:47.285Z,16.80
2022-09-10T00:20:59.723Z,16.80
2022-09-10T00:25:09.809Z,16.70
2022-09-10T00:29:20.124Z,16.80
2022-09-10T00:33:30.331Z,16.70
2022-09-10T00:37:41.103Z,16.70
2022-09-10T00:41:52.782Z,16.70
2022-09-10T00:46:02.245Z,16.80
2022-09-10T00:50:21.970Z,16.80
2022-09-10T00:54:36.294Z,16.80
2022-09-10T00:58:47.826Z,16.80
2022-09-10T01:02:56.872Z,16.70
2022-09-10T01:07:06.195Z,16.80
2022-09-10T01:11:38.020Z,16.70
2022-09-10T01:15:56.941Z,16.70
2022-09-10T01:20:45.717Z,16.70
2022-09-10T01:24:57.686Z,16.70
2022-09-10T01:29:16.540Z,16.70
2022-09-10T01:33:32.170Z,16.60
2022-09-10T01:37:45.360Z,16.60
2022-09-10T01:41:55.974Z,16.60
2022-09-10T01:46:23.255Z,16.60
2022-09-10T01:50:40.041Z,16.50
2022-09-10T01:55:01.643Z,16.50
2022-09-10T01:59:19.578Z,16.50
2022-09-10T02:03:31.144Z,16.50
2022-09-10T02:07:40.452Z,16.50
2022-09-10T02:11:51.608Z,16.50
2022-09-10T02:16:00.995Z,16.50
2022-09-10T02:20:15.044Z,16.40
2022-09-10T02:24:24.235Z,16.40
2022-09-10T02:28:33.452Z,16.40
2022-09-10T02:32:43.179Z,16.40
2022-09-10T02:36:57.722Z,16.40
2022-09-10T02:41:06.668Z,16.40
2022-09-10T02:45:15.854Z,16.40
2022-09-10T02:49:24.756Z,16.30
2022-09-10T02:53:36.185Z,16.20
2022-09-10T02:57:45.684Z,16.20
2022-09-10T03:01:56.654Z,16.00
2022-09-10T03:06:06.450Z,15.90
2022-09-10T03:10:17.007Z,15.90
2022-09-10T03:14:26.155Z,15.80
2022-09-10T03:18:35.763Z,15.90
2022-09-10T03:22:44.845Z,15.80
2022-09-10T03:26:55.557Z,15.80
2022-09-10T03:31:04.856Z,15.70
2022-09-10T03:35:14.112Z,15.70
2022-09-10T03:39:22.995Z,15.60
2022-09-10T03:43:33.428Z,15.40
2022-09-10T03:47:42.567Z,15.30
2022-09-10T03:51:51.497Z,15.30
2022-09-10T03:56:00.478Z,15.20
2022-09-10T04:00:13.790Z,15.10
2022-09-10T04:04:22.874Z,14.90
2022-09-10T04:08:31.847Z,14.90
2022-09-10T04:12:41.048Z,14.90
2022-09-10T04:16:52.647Z,14.80
2022-09-10T04:21:01.818Z,14.70
2022-09-10T04:25:11.563Z,14.60
2022-09-10T04:29:20.767Z,14.50
2022-09-10T04:33:31.097Z,14.40
2022-09-10T04:37:40.077Z,14.40
2022-09-10T04:41:49.037Z,14.20
2022-09-10T04:45:59.400Z,14.20
2022-09-10T04:50:11.548Z,14.10
2022-09-10T04:54:20.396Z,14.10
2022-09-10T04:58:29.375Z,14.00
2022-09-10T05:02:39.243Z,13.90
2022-09-10T05:06:50.542Z,13.90
2022-09-10T05:11:01.510Z,13.90
2022-09-10T05:15:11.512Z,13.90
2022-09-10T05:19:20.639Z,13.80
2022-09-10T05:23:31.180Z,13.70
2022-09-10T05:27:40.171Z,13.60
2022-09-10T05:31:49.159Z,13.60
2022-09-10T05:35:58.134Z,13.60
2022-09-10T05:40:10.926Z,13.50
2022-09-10T05:44:20.018Z,13.40
2022-09-10T05:48:29.052Z,13.40
2022-09-10T05:52:38.126Z,13.50
2022-09-10T05:56:49.002Z,13.60
2022-09-10T06:00:58.393Z,13.60
2022-09-10T06:05:07.855Z,13.60
2022-09-10T06:09:17.393Z,13.70
2022-09-10T06:13:28.051Z,13.60
2022-09-10T06:17:38.491Z,13.60
2022-09-10T06:21:47.783Z,13.60
2022-09-10T06:26:04.327Z,13.70
2022-09-10T06:30:15.890Z,13.70
2022-09-10T06:34:25.031Z,13.70
2022-09-10T06:38:35.146Z,13.70
2022-09-10T06:42:44.269Z,13.80
2022-09-10T06:51:25.159Z,14.00
2022-09-10T06:55:37.145Z,14.00
2022-09-10T06:59:46.347Z,14.10
2022-09-10T07:04:01.024Z,14.20
2022-09-10T07:08:10.925Z,14.20
2022-09-10T07:12:21.805Z,14.30
2022-09-10T07:16:30.824Z,14.30
2022-09-10T07:20:41.545Z,14.50
2022-09-10T07:24:51.765Z,14.60
2022-09-10T07:29:01.767Z,14.70
2022-09-10T07:33:11.932Z,14.90
2022-09-10T07:37:22.953Z,15.00
2022-09-10T07:41:34.915Z,15.10
2022-09-10T07:45:44.138Z,15.30
2022-09-10T07:49:53.793Z,15.50
2022-09-10T07:54:04.774Z,15.70
2022-09-10T07:58:13.814Z,15.80
2022-09-10T08:02:26.134Z,15.90
2022-09-10T08:06:35.853Z,16.00
2022-09-10T08:10:46.313Z,16.10
2022-09-10T08:15:00.293Z,16.40
2022-09-10T08:19:11.135Z,16.70
2022-09-10T08:23:20.432Z,16.90
2022-09-10T08:27:31.032Z,17.00
2022-09-10T08:31:40.152Z,17.00
2022-09-10T08:35:56.455Z,17.10
2022-09-10T08:40:06.842Z,17.40
2022-09-10T08:44:31.534Z,17.80
2022-09-10T08:48:41.374Z,18.20
2022-09-10T08:52:55.331Z,18.50
2022-09-10T08:57:05.795Z,18.50
2022-09-10T09:01:22.831Z,18.70
2022-09-10T09:05:41.052Z,18.90
2022-09-10T09:09:51.975Z,19.20
2022-09-10T09:14:24.432Z,19.50
2022-09-10T09:18:42.993Z,19.50
2022-09-10T09:22:55.532Z,19.50
2022-09-10T09:27:10.342Z,19.70
2022-09-10T09:31:22.769Z,19.70
2022-09-10T09:35:37.392Z,19.80
2022-09-10T09:39:54.568Z,20.00
2022-09-10T09:44:08.794Z,20.20
2022-09-10T09:48:20.777Z,20.40
2022-09-10T09:52:33.612Z,20.30
2022-09-10T09:56:47.973Z,20.30
2022-09-10T10:01:12.174Z,20.50
2022-09-10T10:05:26.274Z,20.50
2022-09-10T10:09:43.213Z,20.50
2022-09-10T10:13:53.373Z,20.50
2022-09-10T10:18:03.791Z,20.50
2022-09-10T10:22:26.173Z,20.60
2022-09-10T10:26:38.772Z,20.70
2022-09-10T10:30:54.776Z,20.70
2022-09-10T10:35:25.013Z,20.90
2022-09-10T10:39:56.557Z,20.90
2022-09-10T10:44:23.733Z,20.90
2022-09-10T10:48:45.056Z,21.00
2022-09-10T10:53:15.011Z,21.10
2022-09-10T10:57:32.853Z,21.20
2022-09-10T11:01:49.831Z,21.40
2022-09-10T11:06:07.414Z,21.40
2022-09-10T11:10:24.593Z,21.30
2022-09-10T11:14:41.294Z,21.30
2022-09-10T11:18:56.793Z,21.60
2022-09-10T11:23:15.213Z,21.90
2022-09-10T11:27:29.475Z,22.00
2022-09-10T11:31:44.391Z,21.80
2022-09-10T11:36:00.431Z,21.60
2022-09-10T11:40:21.534Z,21.60
2022-09-10T11:44:46.392Z,21.50
2022-09-10T11:49:03.951Z,21.40
2022-09-10T11:53:21.194Z,21.20
2022-09-10T11:57:53.351Z,21.10
2022-09-10T12:02:34.232Z,21.10
2022-09-10T12:06:55.592Z,20.90
2022-09-10T12:11:16.712Z,20.90
2022-09-10T12:15:28.251Z,21.10
2022-09-10T12:19:41.494Z,21.20
2022-09-10T12:23:50.793Z,21.20
2022-09-10T12:28:03.313Z,21.40
2022-09-10T12:32:30.917Z,21.70
2022-09-10T12:37:17.651Z,21.90
2022-09-10T12:42:02.152Z,22.00
2022-09-10T12:46:23.101Z,22.00
2022-09-10T12:50:38.195Z,22.20
2022-09-10T12:54:57.594Z,22.00
2022-09-10T12:59:26.893Z,21.90
2022-09-10T13:03:50.373Z,21.90
2022-09-10T13:08:08.548Z,21.90
2022-09-10T13:12:22.715Z,21.80
2022-09-10T13:16:42.833Z,21.50
2022-09-10T13:20:53.951Z,21.20
2022-09-10T13:25:07.613Z,21.10
2022-09-10T13:29:31.172Z,21.10
2022-09-10T13:33:59.211Z,20.90
2022-09-10T13:38:33.512Z,20.70
2022-09-10T13:43:06.694Z,21.00
2022-09-10T13:47:19.293Z,21.30
2022-09-10T13:51:34.032Z,21.10
2022-09-10T13:55:56.832Z,21.10
2022-09-10T14:00:09.893Z,21.10
2022-09-10T14:04:31.848Z,21.10
2022-09-10T14:08:47.092Z,21.10
2022-09-10T14:13:00.292Z,21.00
2022-09-10T14:17:15.115Z,20.90
2022-09-10T14:21:28.433Z,20.50
2022-09-10T14:25:39.392Z,20.30
2022-09-10T14:29:50.913Z,20.30
2022-09-10T14:34:06.051Z,20.40
2022-09-10T14:38:52.071Z,20.50
2022-09-10T14:43:20.074Z,20.20
2022-09-10T14:47:37.755Z,20.10
2022-09-10T14:51:54.196Z,20.20
2022-09-10T15:01:24.673Z,20.10
2022-09-10T15:05:35.592Z,20.10
2022-09-10T15:09:45.431Z,20.00
2022-09-10T15:13:56.272Z,19.80
2022-09-10T15:18:05.895Z,19.80
2022-09-10T15:22:23.274Z,19.80
2022-09-10T15:26:32.593Z,19.90
2022-09-10T15:30:42.057Z,20.00
2022-09-10T15:39:29.054Z,20.00
2022-09-10T15:43:54.292Z,20.00
2022-09-10T16:12:44.685Z,19.50
2022-09-10T16:21:59.687Z,19.90
2022-09-10T16:44:44.146Z,20.20
2022-09-10T17:16:44.352Z,19.30
2022-09-10T17:25:46.887Z,19.10
2022-09-10T17:29:56.488Z,19.00
2022-09-10T17:34:07.748Z,19.00
2022-09-10T17:51:37.908Z,18.80
2022-09-10T17:55:48.907Z,18.70
2022-09-10T17:59:58.091Z,18.70
2022-09-10T18:04:08.608Z,18.60
2022-09-10T18:08:32.647Z,18.60
2022-09-10T18:17:48.987Z,18.60
2022-09-10T18:26:39.806Z,18.50
2022-09-10T18:40:43.408Z,18.30
2022-09-10T18:49:49.769Z,18.40
2022-09-10T18:54:06.883Z,18.40
2022-09-10T19:09:05.824Z,18.30
2022-09-10T19:13:16.102Z,18.30
2022-09-10T19:17:40.442Z,18.40
2022-09-10T19:22:01.942Z,18.30
2022-09-10T19:40:22.641Z,18.30
2022-09-10T20:37:29.402Z,18.60
2022-09-10T20:41:41.035Z,18.60
2022-09-10T20:55:40.701Z,18.60
2022-09-10T21:18:07.463Z,18.60
